Time;durP1;ratioP1;P1;durP2;ratioP2;P2;SDS_P1;SDS_P2;PMS_P1;PMS_P2;Temp;Humidity;BMP_temperature;BMP_pressure;BME280_temperature;BME280_humidity;BME280_pressure;Samples;Min_cycle;Max_cycle;Signal;HPM_P1;HPM_P2
2023/01/02 00:00:59;;;;;;;6.03;2.53;;;;;;;1.77;92.93;96801.96;1801183;80;21005;-69
2023/01/02 00:03:26;;;;;;;4.90;2.60;;;;;;;1.73;92.81;96802.25;1801077;80;21032;-69
2023/01/02 00:05:54;;;;;;;6.30;4.40;;;;;;;1.75;92.71;96801.02;1801080;80;20958;-69
2023/01/02 00:08:20;;;;;;;3.53;2.77;;;;;;;1.70;92.56;96808.66;1800941;80;21031;-69
2023/01/02 00:10:47;;;;;;;4.37;2.40;;;;;;;1.65;92.54;96798.51;1800974;80;21452;-69
2023/01/02 00:13:13;;;;;;;5.07;2.00;;;;;;;1.63;92.87;96799.73;1801262;80;20980;-69
2023/01/02 00:15:40;;;;;;;4.27;2.40;;;;;;;1.62;92.92;96804.48;1801194;80;21005;-69
2023/01/02 00:18:06;;;;;;;10.20;2.30;;;;;;;1.56;92.55;96799.05;1800960;80;21009;-69
2023/01/02 00:20:33;;;;;;;2.80;2.10;;;;;;;1.58;93.04;96809.09;1800852;80;21128;-69
2023/01/02 00:22:59;;;;;;;10.57;2.47;;;;;;;1.61;93.08;96807.02;1801425;80;20949;-69
2023/01/02 00:25:26;;;;;;;2.23;1.63;;;;;;;1.56;92.91;96811.17;1800773;80;21558;-69
2023/01/02 00:27:55;;;;;;;4.67;2.30;;;;;;;1.45;92.68;96807.77;1801067;80;21013;-68
2023/01/02 00:30:22;;;;;;;3.53;2.93;;;;;;;1.41;92.69;96813.72;1801139;80;21028;-69
2023/01/02 00:32:48;;;;;;;3.90;2.50;;;;;;;1.47;93.15;96800.92;1800783;80;21002;-69
2023/01/02 00:35:15;;;;;;;6.70;2.40;;;;;;;1.51;93.27;96799.30;1800854;80;21013;-69
2023/01/02 00:37:41;;;;;;;2.80;2.20;;;;;;;1.53;93.01;96813.67;1801405;80;21009;-69
2023/01/02 00:40:12;;;;;;;3.67;2.27;;;;;;;1.49;92.89;96807.49;1800945;80;20976;-69
2023/01/02 00:42:42;;;;;;;5.13;2.50;;;;;;;1.53;93.31;96812.38;1801082;80;21020;-69
2023/01/02 00:45:10;;;;;;;2.53;2.07;;;;;;;1.58;93.50;96810.40;1801180;80;20961;-69
2023/01/02 00:47:37;;;;;;;8.37;2.70;;;;;;;1.60;93.30;96810.47;1800657;80;21024;-69
2023/01/02 00:50:05;;;;;;;3.60;2.50;;;;;;;1.57;93.10;96808.64;1801057;80;21515;-69
2023/01/02 00:52:32;;;;;;;5.27;2.37;;;;;;;1.56;92.97;96811.17;1801189;80;21494;-69
2023/01/02 00:54:58;;;;;;;3.40;2.10;;;;;;;1.55;92.86;96804.22;1800775;80;21001;-69
2023/01/02 00:57:25;;;;;;;4.80;1.97;;;;;;;1.53;92.65;96813.67;1800848;80;21116;-69
2023/01/02 00:59:52;;;;;;;3.57;2.23;;;;;;;1.51;92.83;96811.91;1801142;80;21048;-69
2023/01/02 01:02:18;;;;;;;2.77;1.93;;;;;;;1.50;92.70;96804.05;1801048;80;21486;-69
2023/01/02 01:04:44;;;;;;;3.13;2.10;;;;;;;1.44;92.30;96811.64;1801261;80;21000;-69
2023/01/02 01:07:11;;;;;;;2.97;2.00;;;;;;;1.43;92.75;96805.95;1801038;80;21440;-69
2023/01/02 01:09:37;;;;;;;2.70;2.10;;;;;;;1.45;92.94;96810.80;1801092;80;20996;-69
2023/01/02 01:12:04;;;;;;;2.57;2.10;;;;;;;1.45;92.99;96810.80;1801163;80;21510;-69
2023/01/02 01:14:31;;;;;;;3.37;2.20;;;;;;;1.49;93.35;96805.77;1801034;80;21016;-69
2023/01/02 01:16:58;;;;;;;2.37;1.63;;;;;;;1.56;93.53;96800.77;1801217;80;20996;-69
2023/01/02 01:19:30;;;;;;;7.23;3.30;;;;;;;1.57;93.30;96799.54;1801068;80;20981;-69
2023/01/02 01:21:57;;;;;;;2.77;2.23;;;;;;;1.54;92.94;96798.14;1801169;80;20977;-69
2023/01/02 01:24:24;;;;;;;4.27;2.77;;;;;;;1.47;92.67;96793.54;1800899;80;21032;-69
2023/01/02 01:26:51;;;;;;;4.20;2.40;;;;;;;1.47;93.03;96798.74;1801126;80;20977;-69
2023/01/02 01:29:18;;;;;;;3.63;2.13;;;;;;;1.48;93.32;96793.58;1800945;80;21000;-69
2023/01/02 01:31:44;;;;;;;3.83;2.40;;;;;;;1.49;93.22;96794.06;1801017;80;21020;-69
2023/01/02 01:34:12;;;;;;;5.97;2.07;;;;;;;1.47;93.08;96790.94;1801132;80;21037;-69
2023/01/02 01:36:39;;;;;;;2.83;2.40;;;;;;;1.48;93.40;96794.88;1800576;80;21052;-69
2023/01/02 01:39:05;;;;;;;2.90;1.73;;;;;;;1.48;93.31;96787.50;1801016;80;21009;-69
2023/01/02 01:41:32;;;;;;;3.47;1.70;;;;;;;1.45;92.94;96790.88;1801071;80;21538;-69
2023/01/02 01:44:00;;;;;;;3.60;2.53;;;;;;;1.36;92.69;96782.77;1801161;80;20969;-68
2023/01/02 01:46:38;;;;;;;2.37;1.90;;;;;;;1.32;92.88;96789.09;1800294;80;21490;-69
2023/01/02 01:49:27;;;;;;;2.33;1.77;;;;;;;1.30;92.93;96785.13;1787065;80;21037;-69
2023/01/02 01:52:08;;;;;;;5.57;3.83;;;;;;;1.31;93.15;96777.81;1787089;80;21001;-69
2023/01/02 01:54:40;;;;;;;2.87;2.00;;;;;;;1.32;93.07;96774.37;1786577;80;21124;-69
2023/01/02 01:57:15;;;;;;;2.70;1.97;;;;;;;1.31;93.15;96777.81;1786861;80;21021;-69
2023/01/02 01:59:43;;;;;;;3.30;2.20;;;;;;;1.34;93.45;96774.02;1786328;80;21033;-69
2023/01/02 02:02:09;;;;;;;4.97;1.93;;;;;;;1.34;93.29;96773.14;1787097;80;20978;-69
2023/01/02 02:04:36;;;;;;;4.70;2.53;;;;;;;1.30;93.07;96766.92;1786932;80;21013;-69
2023/01/02 02:07:03;;;;;;;5.30;2.20;;;;;;;1.30;93.25;96764.32;1787068;80;20962;-69
2023/01/02 02:09:38;;;;;;;3.50;2.20;;;;;;;1.31;93.36;96763.52;1787069;80;20974;-69
2023/01/02 02:12:06;;;;;;;3.43;1.67;;;;;;;1.31;93.30;96766.11;1787010;80;20982;-69
2023/01/02 02:14:33;;;;;;;4.17;2.37;;;;;;;1.27;93.11;96766.81;1787156;80;20997;-69
2023/01/02 02:17:26;;;;;;;3.73;2.13;;;;;;;1.24;93.23;96763.69;1786906;80;20994;-69
2023/01/02 02:20:30;;;;;;;4.20;2.77;;;;;;;1.23;93.21;96762.33;1787200;80;20982;-69
2023/01/02 02:23:44;;;;;;;3.60;1.60;;;;;;;1.22;93.21;96770.97;1787126;80;21100;-69
2023/01/02 02:26:38;;;;;;;6.40;2.30;;;;;;;1.23;93.63;96762.33;1786830;80;21096;-69
2023/01/02 02:29:24;;;;;;;5.67;1.92;;;;;;;1.19;93.39;96765.24;1787240;80;20971;-69
2023/01/02 02:32:19;;;;;;;8.37;4.70;;;;;;;1.14;92.97;96758.99;1786376;80;21060;-69
2023/01/02 02:34:51;;;;;;;3.73;2.17;;;;;;;1.09;92.91;96765.73;1786754;80;21045;-69
2023/01/02 02:37:48;;;;;;;3.33;2.40;;;;;;;1.10;93.46;96756.22;1787131;80;20974;-69
2023/01/02 02:40:51;;;;;;;2.60;2.20;;;;;;;1.14;93.88;96754.22;1787137;80;21476;-69
2023/01/02 02:43:47;;;;;;;3.23;2.00;;;;;;;1.12;93.78;96752.84;1786454;80;21002;-69
2023/01/02 02:46:42;;;;;;;4.00;2.00;;;;;;;1.09;93.69;96751.44;1787244;80;21045;-69
2023/01/02 02:49:22;;;;;;;5.63;2.53;;;;;;;1.13;93.77;96753.30;1786915;80;21515;-69
2023/01/02 02:52:03;;;;;;;2.33;1.77;;;;;;;1.10;93.36;96757.52;1787012;80;21061;-69
2023/01/02 02:54:35;;;;;;;2.97;1.70;;;;;;;1.05;93.25;96755.63;1778699;80;21009;-69
2023/01/02 02:57:04;;;;;;;5.87;2.70;;;;;;;1.04;93.68;96751.27;1785591;80;21091;-69
2023/01/02 02:59:33;;;;;;;3.07;1.67;;;;;;;1.02;93.39;96741.22;1779882;80;20989;-69
2023/01/02 03:02:04;;;;;;;4.07;2.10;;;;;;;1.01;93.39;96736.88;1787542;80;20934;-69
2023/01/02 03:04:30;;;;;;;4.00;1.93;;;;;;;1.01;93.53;96745.97;1787212;80;21057;-69
2023/01/02 03:07:27;;;;;;;3.23;2.10;;;;;;;1.04;93.66;96740.00;1787137;80;20989;-69
2023/01/02 03:10:17;;;;;;;3.17;1.90;;;;;;;1.05;93.69;96736.55;1787010;80;21041;-69
2023/01/02 03:13:18;;;;;;;4.27;2.30;;;;;;;0.98;93.24;96740.66;1787345;80;20990;-69
2023/01/02 03:15:53;;;;;;;3.90;1.97;;;;;;;0.95;93.21;96737.05;1787028;80;21045;-69
2023/01/02 03:18:45;;;;;;;4.03;1.80;;;;;;;0.96;93.61;96737.12;1786804;80;21074;-69
2023/01/02 03:21:20;;;;;;;4.67;1.83;;;;;;;0.97;93.86;96741.89;1786962;80;21017;-69
2023/01/02 03:23:48;;;;;;;3.00;2.37;;;;;;;0.94;93.70;96730.09;1787061;80;21006;-69
2023/01/02 03:26:20;;;;;;;6.00;3.03;;;;;;;0.91;93.60;96729.57;1786945;80;21082;-69
2023/01/02 03:28:52;;;;;;;182.83;57.77;;;;;;;0.85;93.69;96728.90;1786776;80;21013;-69
2023/01/02 03:31:21;;;;;;;28.13;10.70;;;;;;;0.83;93.40;96716.69;1787302;80;21001;-69
2023/01/02 03:33:53;;;;;;;4.53;2.10;;;;;;;0.81;93.50;96714.05;1787052;80;21090;-69
2023/01/02 03:36:24;;;;;;;10.13;4.40;;;;;;;0.83;93.79;96713.70;1787282;80;20974;-69
2023/01/02 03:38:59;;;;;;;3.00;1.70;;;;;;;0.84;93.96;96716.75;1786922;80;21010;-69
2023/01/02 03:41:33;;;;;;;4.47;1.80;;;;;;;0.83;93.73;96719.28;1786234;80;21021;-69
2023/01/02 03:44:02;;;;;;;5.40;1.90;;;;;;;0.84;93.98;96712.86;1786379;80;21022;-69
2023/01/02 03:46:54;;;;;;;4.27;2.10;;;;;;;0.86;93.98;96712.50;1787314;80;21460;-69
2023/01/02 03:49:26;;;;;;;3.33;2.23;;;;;;;0.89;94.05;96720.83;1787078;80;20994;-69
2023/01/02 03:51:53;;;;;;;6.00;3.50;;;;;;;0.91;94.13;96719.56;1786955;80;21472;-69
2023/01/02 03:54:20;;;;;;;4.27;2.03;;;;;;;0.91;93.91;96728.27;1787107;80;21044;-69
2023/01/02 03:57:07;;;;;;;2.10;1.50;;;;;;;0.94;94.09;96725.77;1786648;80;21469;-69
2023/01/02 03:59:54;;;;;;;9.67;4.37;;;;;;;0.90;93.81;96721.28;1787182;80;20979;-69
2023/01/02 04:02:56;;;;;;;58.10;24.20;;;;;;;0.84;93.69;96719.35;1786720;80;21116;-69
2023/01/02 04:05:37;;;;;;;6.90;3.73;;;;;;;0.79;93.56;96722.20;1787701;80;21033;-69
2023/01/02 04:08:13;;;;;;;3.37;2.10;;;;;;;0.79;93.92;96718.30;1786929;80;20998;-69
2023/01/02 04:10:42;;;;;;;3.13;1.63;;;;;;;0.77;93.73;96720.37;1786878;80;21032;-69
2023/01/02 04:13:17;;;;;;;3.77;1.70;;;;;;;0.80;94.17;96725.25;1787191;80;21017;-69
2023/01/02 04:15:46;;;;;;;1.60;1.50;;;;;;;0.83;94.32;96718.89;1787388;80;21002;-69
2023/01/02 04:18:27;;;;;;;4.00;1.83;;;;;;;0.81;94.06;96723.56;1786710;80;21523;-69
2023/01/02 04:20:58;;;;;;;5.63;3.70;;;;;;;0.80;93.92;96721.77;1787136;80;21498;-69
2023/01/02 04:23:30;;;;;;;5.23;2.63;;;;;;;0.79;93.83;96726.52;1787014;80;22289;-68
2023/01/02 04:26:11;;;;;;;3.00;2.00;;;;;;;0.76;93.76;96723.81;1787128;80;20993;-69
2023/01/02 04:28:37;;;;;;;2.07;1.50;;;;;;;0.76;94.01;96722.09;1785935;80;21020;-69
2023/01/02 04:31:17;;;;;;;4.43;1.87;;;;;;;0.73;93.78;96721.06;1787218;80;21024;-69
2023/01/02 04:33:51;;;;;;;3.23;1.53;;;;;;;0.76;94.22;96731.60;1787176;80;21510;-69
2023/01/02 04:36:17;;;;;;;4.30;1.60;;;;;;;0.80;94.37;96722.66;1787297;80;20987;-69
2023/01/02 04:38:45;;;;;;;11.27;4.97;;;;;;;0.75;93.69;96725.91;1786948;80;21495;-69
2023/01/02 04:41:25;;;;;;;24.73;12.77;;;;;;;0.66;93.44;96731.66;1787052;80;21044;-69
2023/01/02 04:43:54;;;;;;;46.67;23.07;;;;;;;0.55;92.81;96730.35;1787087;80;20998;-69
2023/01/02 04:46:21;;;;;;;29.00;15.40;;;;;;;0.55;93.70;96725.16;1787121;80;20982;-69
2023/01/02 04:48:48;;;;;;;4.60;2.40;;;;;;;0.54;93.68;96732.49;1786761;79;21014;-69
2023/01/02 04:51:15;;;;;;;6.20;3.30;;;;;;;0.51;93.61;96729.78;1787121;80;21005;-69
2023/01/02 04:53:41;;;;;;;4.27;1.40;;;;;;;0.51;93.79;96726.77;1787211;80;21064;-69
2023/01/02 04:56:09;;;;;;;4.00;1.60;;;;;;;0.51;94.08;96724.17;1787290;80;21041;-69
2023/01/02 04:58:35;;;;;;;2.50;1.97;;;;;;;0.59;94.60;96722.74;1786797;80;21025;-69
2023/01/02 05:01:07;;;;;;;2.97;1.87;;;;;;;0.66;94.70;96710.01;1787295;80;21051;-69
2023/01/02 05:03:33;;;;;;;46.03;22.50;;;;;;;0.60;94.01;96722.32;1787213;80;21056;-69
2023/01/02 05:06:01;;;;;;;36.73;16.70;;;;;;;0.56;93.80;96723.05;1786775;80;21046;-69
2023/01/02 05:08:28;;;;;;;17.90;9.47;;;;;;;0.52;94.31;96714.24;1787202;80;21037;-69
2023/01/02 05:10:55;;;;;;;17.80;9.33;;;;;;;0.46;94.17;96718.34;1787018;80;21492;-69
2023/01/02 05:13:21;;;;;;;12.40;5.83;;;;;;;0.42;93.88;96722.09;1787100;80;20997;-69
2023/01/02 05:15:55;;;;;;;2.90;1.87;;;;;;;0.45;94.17;96721.73;1787226;80;20966;-69
2023/01/02 05:18:21;;;;;;;2.93;1.83;;;;;;;0.50;94.42;96712.41;1787293;80;21005;-69
2023/01/02 05:20:48;;;;;;;1.77;1.33;;;;;;;0.54;94.49;96721.69;1787051;80;21010;-69
2023/01/02 05:26:00;;;;;;;3.37;2.00;;;;;;;0.51;94.09;96728.06;1786732;80;21559;-69
2023/01/02 05:28:26;;;;;;;34.73;17.07;;;;;;;0.50;94.34;96727.99;1787162;80;20986;-69
2023/01/02 05:30:53;;;;;;;36.93;18.53;;;;;;;0.50;94.49;96729.30;1786976;80;21053;-69
2023/01/02 05:33:19;;;;;;;43.20;21.63;;;;;;;0.50;94.36;96725.39;1786998;80;21006;-69
2023/01/02 05:35:46;;;;;;;13.47;7.37;;;;;;;0.52;94.60;96714.66;1787208;80;21005;-69
2023/01/02 05:38:12;;;;;;;9.87;5.30;;;;;;;0.46;94.28;96730.90;1787155;80;21032;-69
2023/01/02 05:40:39;;;;;;;20.97;12.50;;;;;;;0.47;94.37;96726.59;1749214;80;20990;-69
2023/01/02 05:43:05;;;;;;;6.47;3.27;;;;;;;0.40;94.39;96718.58;1787091;80;21050;-69
2023/01/02 05:45:32;;;;;;;5.83;3.20;;;;;;;0.42;94.67;96736.38;1787261;80;21484;-69
2023/01/02 05:47:58;;;;;;;6.33;2.20;;;;;;;0.50;95.09;96727.58;1789757;80;21052;-69
2023/01/02 05:50:24;;;;;;;20.80;11.83;;;;;;;0.56;95.09;96737.34;1801097;80;21510;-69
2023/01/02 05:52:51;;;;;;;13.03;7.63;;;;;;;0.58;95.33;96733.06;1801115;80;21012;-69
2023/01/02 05:55:18;;;;;;;7.70;3.80;;;;;;;0.52;94.65;96741.51;1800936;80;20997;-69
2023/01/02 05:57:44;;;;;;;13.30;7.73;;;;;;;0.56;94.86;96738.64;1801034;80;21009;-69
2023/01/02 06:00:12;;;;;;;5.73;3.40;;;;;;;0.56;95.25;96732.14;1801145;80;21031;-69
2023/01/02 06:02:42;;;;;;;15.23;9.37;;;;;;;0.53;95.02;96747.58;1767925;80;21029;-69
2023/01/02 06:05:08;;;;;;;17.60;7.07;;;;;;;0.56;95.25;96739.52;1801102;80;20977;-69
2023/01/02 06:07:35;;;;;;;6.90;2.97;;;;;;;0.54;94.83;96746.78;1800999;80;21461;-69
2023/01/02 06:10:01;;;;;;;9.90;5.73;;;;;;;0.55;95.36;96744.64;1800879;80;20973;-69
2023/01/02 06:12:29;;;;;;;3.40;1.70;;;;;;;0.51;95.59;96751.86;1800992;80;21065;-69
2023/01/02 06:14:55;;;;;;;5.50;2.23;;;;;;;0.49;95.17;96748.31;1801046;80;20969;-69
2023/01/02 06:17:22;;;;;;;4.23;2.90;;;;;;;0.49;95.81;96749.19;1800921;80;21031;-69
2023/01/02 06:19:48;;;;;;;12.97;7.53;;;;;;;0.51;95.61;96737.58;1801169;80;20984;-69
2023/01/02 06:22:15;;;;;;;68.57;32.03;;;;;;;0.52;96.16;96758.39;1801004;80;21043;-69
2023/01/02 06:24:41;;;;;;;45.60;24.83;;;;;;;0.50;96.63;96731.89;1801008;80;21103;-69
2023/01/02 06:27:08;;;;;;;37.97;21.73;;;;;;;0.50;96.10;96755.26;1800922;80;20997;-69
2023/01/02 06:29:34;;;;;;;13.77;8.03;;;;;;;0.52;96.62;96739.33;1800892;80;20957;-69
2023/01/02 06:32:01;;;;;;;16.47;9.30;;;;;;;0.54;96.24;96749.38;1801104;80;21519;-69
2023/01/02 06:34:27;;;;;;;18.00;10.67;;;;;;;0.56;96.25;96747.30;1801344;80;20989;-69
2023/01/02 06:36:54;;;;;;;6.03;3.10;;;;;;;0.56;95.87;96744.70;1800993;80;20993;-69
2023/01/02 06:39:21;;;;;;;4.00;2.67;;;;;;;0.55;95.71;96744.64;1801015;80;21004;-69
2023/01/02 06:41:48;;;;;;;6.83;3.00;;;;;;;0.54;95.60;96752.84;1800641;80;21062;-69
2023/01/02 06:44:14;;;;;;;4.80;2.90;;;;;;;0.58;95.77;96749.94;1800827;80;21047;-69
2023/01/02 06:46:41;;;;;;;11.73;7.37;;;;;;;0.60;95.69;96749.59;1800934;80;21009;-69
2023/01/02 06:49:07;;;;;;;14.00;8.30;;;;;;;0.58;95.78;96758.64;1793177;80;21020;-69
2023/01/02 06:51:34;;;;;;;12.33;7.07;;;;;;;0.59;95.71;96752.61;1786684;80;20985;-69
2023/01/02 06:54:00;;;;;;;7.37;4.17;;;;;;;0.59;95.37;96751.31;1787155;80;21504;-69
2023/01/02 06:56:27;;;;;;;3.73;2.17;;;;;;;0.67;95.81;96753.32;1786930;80;20998;-69
2023/01/02 06:58:53;;;;;;;2.80;1.37;;;;;;;0.74;96.01;96754.91;1787095;80;21467;-69
2023/01/02 07:01:22;;;;;;;4.33;1.50;;;;;;;0.81;96.08;96743.92;1787138;80;20974;-69
2023/01/02 07:03:49;;;;;;;1.83;1.43;;;;;;;0.89;96.10;96748.53;1787139;80;21053;-69
2023/01/02 07:06:20;;;;;;;6.07;3.77;;;;;;;0.94;96.04;96745.27;1786948;80;21010;-69
2023/01/02 07:08:47;;;;;;;4.47;2.50;;;;;;;1.01;96.06;96743.37;1787117;80;20990;-69
2023/01/02 07:11:21;;;;;;;9.97;6.47;;;;;;;1.05;95.84;96741.33;1787029;80;21006;-69
2023/01/02 07:13:50;;;;;;;22.90;15.17;;;;;;;1.11;95.74;96741.08;1786992;80;20997;-69
2023/01/02 07:16:19;;;;;;;12.90;7.77;;;;;;;1.07;94.92;96747.90;1787146;80;21439;-69
2023/01/02 07:18:46;;;;;;;11.33;5.60;;;;;;;1.10;95.24;96741.92;1786990;80;20985;-69
2023/01/02 07:21:15;;;;;;;4.17;2.30;;;;;;;1.15;95.30;96752.95;1787123;80;21012;-69
2023/01/02 07:23:41;;;;;;;2.57;0.97;;;;;;;1.14;95.05;96749.02;1787047;80;21013;-69
2023/01/02 07:26:09;;;;;;;4.83;1.80;;;;;;;1.12;95.04;96745.05;1786743;80;21069;-70
2023/01/02 07:28:37;;;;;;;1.60;1.30;;;;;;;1.18;95.42;96746.98;1787001;80;21014;-68
2023/01/02 07:31:07;;;;;;;2.57;1.33;;;;;;;1.29;95.77;96748.27;1787222;80;20954;-69
2023/01/02 07:33:34;;;;;;;3.60;1.40;;;;;;;1.32;95.57;96745.77;1786876;80;20966;-69
2023/01/02 07:36:09;;;;;;;10.33;4.73;;;;;;;1.40;95.59;96750.81;1787112;80;21587;-69
2023/01/02 07:38:37;;;;;;;8.07;3.73;;;;;;;1.48;95.69;96754.98;1787238;80;21009;-69
2023/01/02 07:41:14;;;;;;;4.17;2.70;;;;;;;1.59;96.11;96748.84;1787020;80;21535;-69
2023/01/02 07:43:42;;;;;;;5.97;3.10;;;;;;;1.67;96.03;96747.42;1786891;80;21013;-69
2023/01/02 07:46:08;;;;;;;11.77;8.30;;;;;;;1.76;95.73;96751.61;1786884;80;21068;-69
2023/01/02 07:48:35;;;;;;;9.90;4.40;;;;;;;1.77;95.35;96752.52;1786892;80;21014;-69
2023/01/02 07:51:05;;;;;;;45.20;30.17;;;;;;;1.78;95.05;96758.19;1787143;80;21013;-69
2023/01/02 07:53:33;;;;;;;8.93;6.13;;;;;;;1.83;95.17;96750.11;1787201;80;21048;-69
2023/01/02 07:56:02;;;;;;;7.37;4.50;;;;;;;1.92;95.48;96746.53;1786846;80;20974;-69
2023/01/02 07:58:28;;;;;;;30.50;19.53;;;;;;;2.05;95.85;96753.02;1786998;80;20981;-69
2023/01/02 08:00:55;;;;;;;24.33;16.17;;;;;;;2.12;95.58;96745.89;1786902;80;21007;-69
2023/01/02 08:03:22;;;;;;;14.97;8.63;;;;;;;2.28;96.42;96741.63;1786741;80;21021;-69
2023/01/02 08:05:49;;;;;;;14.73;10.33;;;;;;;2.39;95.96;96748.46;1787348;80;21005;-69
2023/01/02 08:08:16;;;;;;;21.67;14.40;;;;;;;2.33;95.03;96749.16;1786858;80;21041;-69
2023/01/02 08:10:42;;;;;;;15.97;11.13;;;;;;;2.45;96.04;96739.55;1786776;80;21044;-69
2023/01/02 08:13:09;;;;;;;12.43;8.73;;;;;;;2.60;96.17;96741.75;1786877;80;21013;-69
2023/01/02 08:15:35;;;;;;;39.37;24.40;;;;;;;2.70;96.13;96737.28;1786952;80;20985;-69
2023/01/02 08:18:02;;;;;;;21.07;12.40;;;;;;;2.77;95.62;96747.06;1787196;80;21124;-69
2023/01/02 08:20:28;;;;;;;17.10;11.10;;;;;;;2.87;95.87;96741.67;1787292;80;20970;-69
2023/01/02 08:22:56;;;;;;;15.60;9.53;;;;;;;2.90;95.51;96735.27;1787091;80;21491;-69
2023/01/02 08:25:22;;;;;;;13.70;10.37;;;;;;;3.06;96.03;96746.14;1787111;80;21078;-69
2023/01/02 08:27:49;;;;;;;15.17;11.00;;;;;;;3.06;95.33;96746.14;1787061;80;21455;-69
2023/01/02 08:30:16;;;;;;;19.63;11.90;;;;;;;3.16;95.86;96741.23;1786865;80;21053;-69
2023/01/02 08:32:43;;;;;;;15.73;10.97;;;;;;;3.31;96.12;96734.26;1787137;80;21053;-69
2023/01/02 08:35:09;;;;;;;20.67;13.27;;;;;;;3.34;95.53;96741.28;1787276;80;21001;-69
2023/01/02 08:37:36;;;;;;;22.53;14.33;;;;;;;3.38;95.35;96744.45;1787271;80;20993;-69
2023/01/02 08:40:05;;;;;;;21.50;15.27;;;;;;;3.44;95.15;96745.48;1786868;80;21121;-69
2023/01/02 08:42:32;;;;;;;18.73;13.63;;;;;;;3.47;95.07;96745.98;1787016;80;21087;-69
2023/01/02 08:44:58;;;;;;;23.47;14.13;;;;;;;3.45;94.52;96745.97;1787045;80;21053;-69
2023/01/02 08:47:25;;;;;;;20.17;13.93;;;;;;;3.55;95.32;96749.68;1786886;80;21029;-69
2023/01/02 08:49:52;;;;;;;20.80;14.70;;;;;;;3.68;95.70;96746.58;1786563;80;21014;-69
2023/01/02 08:52:18;;;;;;;20.67;14.97;;;;;;;3.79;95.73;96737.72;1787231;80;21033;-69
2023/01/02 08:54:44;;;;;;;21.13;15.73;;;;;;;3.89;95.64;96742.33;1787269;80;20989;-69
2023/01/02 08:57:11;;;;;;;18.13;13.30;;;;;;;4.03;95.77;96744.00;1786258;80;21785;-69
2023/01/02 08:59:38;;;;;;;20.23;14.03;;;;;;;4.01;94.75;96739.59;1787065;80;21017;-69
2023/01/02 09:02:05;;;;;;;17.63;12.37;;;;;;;4.07;95.04;96744.52;1786871;80;20985;-69
2023/01/02 09:04:32;;;;;;;23.30;13.70;;;;;;;4.03;94.42;96743.09;1786831;80;21021;-69
2023/01/02 09:06:58;;;;;;;18.10;13.27;;;;;;;4.06;94.64;96747.98;1787262;80;21512;-69
2023/01/02 09:09:25;;;;;;;23.87;15.43;;;;;;;4.13;94.83;96743.78;1787143;80;20981;-69
2023/01/02 09:11:52;;;;;;;22.73;15.57;;;;;;;4.17;94.88;96740.41;1786604;80;21071;-69
2023/01/02 09:14:20;;;;;;;24.00;16.20;;;;;;;4.34;95.52;96734.30;1787299;80;20993;-69
2023/01/02 09:16:49;;;;;;;26.77;18.07;;;;;;;4.49;95.59;96729.86;1787175;80;20993;-69
2023/01/02 09:19:16;;;;;;;25.73;17.60;;;;;;;4.68;96.14;96730.72;1787058;80;21009;-69
2023/01/02 09:21:42;;;;;;;27.30;16.63;;;;;;;4.80;95.67;96728.81;1787197;80;21032;-68
2023/01/02 09:24:09;;;;;;;28.83;14.40;;;;;;;4.90;95.52;96717.70;1786773;80;20989;-69
2023/01/02 09:26:40;;;;;;;20.73;13.97;;;;;;;5.06;95.77;96721.94;1786696;80;21061;-69
2023/01/02 09:29:06;;;;;;;18.50;13.77;;;;;;;5.19;95.76;96719.62;1786763;80;20978;-69
2023/01/02 09:31:33;;;;;;;21.53;14.20;;;;;;;5.34;95.84;96708.58;1786849;80;21029;-68
2023/01/02 09:34:00;;;;;;;19.13;12.47;;;;;;;5.49;95.75;96711.02;1786982;80;21006;-69
2023/01/02 09:36:26;;;;;;;17.63;12.53;;;;;;;5.54;94.79;96710.24;1787171;80;21456;-69
2023/01/02 09:38:56;;;;;;;18.93;12.60;;;;;;;5.60;94.70;96704.27;1787107;80;21025;-69
2023/01/02 09:41:47;;;;;;;15.50;11.03;;;;;;;5.73;95.04;96705.37;1787205;80;21056;-69
2023/01/02 09:44:32;;;;;;;14.70;10.13;;;;;;;5.86;95.03;96695.55;1786923;80;20966;-68
2023/01/02 09:47:09;;;;;;;16.23;10.77;;;;;;;5.97;94.75;96698.38;1786767;80;21086;-69
2023/01/02 09:49:46;;;;;;;18.23;12.90;;;;;;;6.13;95.09;96691.69;1788782;80;21506;-69
2023/01/02 09:52:21;;;;;;;14.13;9.97;;;;;;;6.33;95.41;96682.83;1792387;80;21017;-69
2023/01/02 09:54:47;;;;;;;18.83;12.27;;;;;;;6.65;95.66;96691.14;1792558;80;21004;-69
2023/01/02 09:57:25;;;;;;;13.93;10.80;;;;;;;7.09;94.94;96674.69;1792714;80;21491;-69
2023/01/02 10:00:19;;;;;;;16.63;12.03;;;;;;;7.52;94.47;96670.36;1792129;80;21041;-69
2023/01/02 10:02:57;;;;;;;15.10;11.80;;;;;;;7.89;92.52;96662.86;1771006;80;21017;-69
2023/01/02 10:05:29;;;;;;;16.97;12.63;;;;;;;8.36;93.18;96650.50;1792761;80;21774;-69
2023/01/02 10:08:16;;;;;;;20.57;13.90;;;;;;;9.02;91.29;96649.59;1791873;80;21036;-69
2023/01/02 10:10:51;;;;;;;16.77;12.28;;;;;;;9.47;90.84;96646.23;1757821;80;21077;-69
2023/01/02 10:13:40;;;;;;;19.23;14.70;;;;;;;10.02;91.11;96641.94;1792625;80;21547;-69
2023/01/02 10:16:11;;;;;;;20.68;13.30;;;;;;;10.29;84.70;96630.09;1791197;80;21009;-69
2023/01/02 10:18:42;;;;;;;13.43;10.60;;;;;;;10.65;85.47;96624.76;1762040;80;21056;-69
2023/01/02 10:21:17;;;;;;;9.43;8.23;;;;;;;10.91;83.13;96631.27;1792486;80;21009;-69
2023/01/02 10:23:49;;;;;;;8.08;7.12;;;;;;;10.96;83.65;96631.72;1792708;80;21519;-69
2023/01/02 10:26:19;;;;;;;7.47;5.22;;;;;;;11.51;85.92;96624.41;1792327;80;21535;-69
2023/01/02 10:29:08;;;;;;;5.10;4.17;;;;;;;11.84;80.92;96612.73;1792271;80;21484;-69
2023/01/02 10:31:43;;;;;;;5.95;3.98;;;;;;;12.12;78.59;96618.75;1791476;80;21041;-69
2023/01/02 10:34:19;;;;;;;6.53;3.90;;;;;;;12.41;81.67;96617.14;1792733;80;20997;-69
2023/01/02 10:36:47;;;;;;;11.15;6.00;;;;;;;12.89;82.13;96613.56;1792515;80;21448;-69
2023/01/02 10:39:24;;;;;;;13.55;7.67;;;;;;;13.09;80.37;96605.38;1792581;80;21677;-69
2023/01/02 10:41:58;;;;;;;9.23;5.45;;;;;;;13.42;78.62;96601.89;1792323;80;21077;-69
2023/01/02 10:44:32;;;;;;;9.63;6.58;;;;;;;13.53;72.18;96593.36;1792773;80;21001;-69
2023/01/02 10:47:20;;;;;;;12.70;7.37;;;;;;;13.44;74.16;96597.91;1792560;80;21550;-70
2023/01/02 10:49:49;;;;;;;8.08;5.80;;;;;;;13.91;75.56;96585.28;1793580;80;21012;-70
2023/01/02 10:52:42;;;;;;;10.08;5.90;;;;;;;14.46;75.04;96583.45;1801103;80;21519;-70
2023/01/02 10:55:08;;;;;;;8.47;5.57;;;;;;;14.84;70.70;96584.11;1801049;80;21021;-69
2023/01/02 10:57:46;;;;;;;9.10;6.78;;;;;;;15.21;68.91;96579.36;1800384;80;21025;-70
2023/01/02 11:00:21;;;;;;;9.28;7.08;;;;;;;15.35;65.12;96575.09;1800853;80;21558;-69
2023/01/02 11:02:55;;;;;;;7.85;6.12;;;;;;;15.40;65.29;96569.68;1798226;80;21064;-70
2023/01/02 11:05:27;;;;;;;9.55;6.50;;;;;;;15.73;67.73;96570.27;1801139;80;21032;-70
2023/01/02 11:07:55;;;;;;;7.83;6.40;;;;;;;16.11;68.25;96567.14;1801396;80;21005;-70
2023/01/02 11:10:37;;;;;;;7.80;6.20;;;;;;;16.30;66.03;96562.67;1800421;80;21032;-70
2023/01/02 11:13:17;;;;;;;7.22;5.70;;;;;;;16.45;64.87;96559.61;1800790;80;20991;-70
2023/01/02 11:15:57;;;;;;;6.80;5.33;;;;;;;16.56;62.26;96551.36;1801078;80;21033;-70
2023/01/02 11:18:28;;;;;;;7.37;6.00;;;;;;;16.89;64.84;96545.58;1801087;80;20977;-70
2023/01/02 11:21:04;;;;;;;7.50;5.55;;;;;;;16.90;58.32;96541.98;1801016;80;21459;-70
2023/01/02 11:23:43;;;;;;;6.60;4.75;;;;;;;17.07;59.41;96538.84;1801010;80;20981;-70
2023/01/02 11:26:20;;;;;;;5.70;4.40;;;;;;;17.30;61.61;96531.48;1801088;80;20996;-70
2023/01/02 11:28:50;;;;;;;8.83;5.10;;;;;;;17.51;59.52;96533.95;1801000;80;20969;-70
2023/01/02 11:31:17;;;;;;;6.87;4.53;;;;;;;17.74;62.11;96533.26;1800900;80;21003;-70
2023/01/02 11:33:45;;;;;;;6.10;3.92;;;;;;;17.90;57.41;96521.18;1801046;80;21526;-70
2023/01/02 11:36:16;;;;;;;5.70;4.35;;;;;;;18.12;56.34;96517.34;1800982;80;21001;-70
2023/01/02 11:38:57;;;;;;;5.10;4.28;;;;;;;18.35;55.84;96518.36;1800699;80;21075;-70
2023/01/02 11:44:53;;;;;;;6.08;4.75;;;;;;;18.49;53.55;96513.86;1800544;80;21013;-70
2023/01/02 11:47:40;;;;;;;6.42;4.33;;;;;;;18.46;54.01;96513.97;1800641;80;21013;-70
2023/01/02 11:50:28;;;;;;;6.40;4.97;;;;;;;18.37;52.88;96517.38;1800677;80;21021;-69
2023/01/02 11:53:14;;;;;;;6.35;5.35;;;;;;;17.95;52.45;96515.23;1800948;80;21534;-68
2023/01/02 11:55:54;;;;;;;6.58;5.75;;;;;;;17.62;52.01;96514.97;1801011;80;21119;-69
2023/01/02 11:58:29;;;;;;;9.03;7.90;;;;;;;17.44;54.02;96519.95;1801052;80;20961;-72
2023/01/02 12:01:05;;;;;;;11.05;7.22;;;;;;;17.31;54.86;96511.89;1801236;80;21479;-72